Terminal Aerodrome Forecast
Issued by NWS

Home | Current Version | Previous Version | Text Only | Print | Product List | Glossary On
Versions: 1 2 3 4 5 6 7 8 9 10 11 12 13 14 15
000
FTUS43 KDTX 301700
TAFMBS
TAF
KMBS 301734Z 3018/0118 36010KT P6SM BKN018 OVC040
      TEMPO 3018/3020 6SM -DZ OVC012
     FM302200 01005KT P6SM OVC018
     FM010800 VRB03KT 4SM BR OVC006
     FM011400 13005KT P6SM OVC016=

USA.gov is the U.S. government's official web portal to all federal, state and local government web resources and services.